sensor_id;sensor_type;location;lat;lon;timestamp;P1;durP1;ratioP1;P2;durP2;ratioP2
2522;SDS011;1272;53.332;9.860;2022-11-18T00:00:30;15.23;;;10.50;;
2522;SDS011;1272;53.332;9.860;2022-11-18T00:02:56;15.40;;;10.93;;
2522;SDS011;1272;53.332;9.860;2022-11-18T00:05:21;24.43;;;13.93;;
2522;SDS011;1272;53.332;9.860;2022-11-18T00:07:47;16.90;;;11.40;;
2522;SDS011;1272;53.332;9.860;2022-11-18T00:10:13;16.77;;;11.63;;
2522;SDS011;1272;53.332;9.860;2022-11-18T00:12:39;15.73;;;10.70;;
2522;SDS011;1272;53.332;9.860;2022-11-18T00:15:23;19.47;;;11.20;;
2522;SDS011;1272;53.332;9.860;2022-11-18T00:17:49;19.00;;;10.33;;
2522;SDS011;1272;53.332;9.860;2022-11-18T00:20:15;16.43;;;11.10;;
2522;SDS011;1272;53.332;9.860;2022-11-18T00:22:41;16.43;;;10.40;;
2522;SDS011;1272;53.332;9.860;2022-11-18T00:25:06;18.80;;;11.70;;
2522;SDS011;1272;53.332;9.860;2022-11-18T00:27:32;15.83;;;10.93;;
2522;SDS011;1272;53.332;9.860;2022-11-18T00:29:58;18.07;;;11.80;;
2522;SDS011;1272;53.332;9.860;2022-11-18T00:32:24;17.30;;;11.53;;
2522;SDS011;1272;53.332;9.860;2022-11-18T00:34:50;16.00;;;10.63;;
2522;SDS011;1272;53.332;9.860;2022-11-18T00:37:18;14.80;;;11.00;;
2522;SDS011;1272;53.332;9.860;2022-11-18T00:39:44;16.10;;;10.97;;
2522;SDS011;1272;53.332;9.860;2022-11-18T00:42:09;17.70;;;12.20;;
2522;SDS011;1272;53.332;9.860;2022-11-18T00:44:54;17.30;;;11.70;;
2522;SDS011;1272;53.332;9.860;2022-11-18T00:47:19;18.70;;;11.73;;
2522;SDS011;1272;53.332;9.860;2022-11-18T00:49:45;17.77;;;10.80;;
2522;SDS011;1272;53.332;9.860;2022-11-18T00:52:11;18.17;;;11.67;;
2522;SDS011;1272;53.332;9.860;2022-11-18T00:54:36;15.93;;;10.67;;
2522;SDS011;1272;53.332;9.860;2022-11-18T00:57:02;20.03;;;12.97;;
2522;SDS011;1272;53.332;9.860;2022-11-18T00:59:29;18.13;;;12.53;;
2522;SDS011;1272;53.332;9.860;2022-11-18T01:01:55;18.50;;;11.90;;
2522;SDS011;1272;53.332;9.860;2022-11-18T01:04:20;18.87;;;12.20;;
2522;SDS011;1272;53.332;9.860;2022-11-18T01:06:46;17.83;;;11.40;;
2522;SDS011;1272;53.332;9.860;2022-11-18T01:09:12;22.53;;;13.10;;
2522;SDS011;1272;53.332;9.860;2022-11-18T01:11:38;18.50;;;11.73;;
2522;SDS011;1272;53.332;9.860;2022-11-18T01:14:25;19.60;;;12.67;;
2522;SDS011;1272;53.332;9.860;2022-11-18T01:16:54;19.33;;;12.87;;
2522;SDS011;1272;53.332;9.860;2022-11-18T01:19:21;18.37;;;11.67;;
2522;SDS011;1272;53.332;9.860;2022-11-18T01:21:48;19.30;;;13.03;;
2522;SDS011;1272;53.332;9.860;2022-11-18T01:24:14;20.47;;;13.07;;
2522;SDS011;1272;53.332;9.860;2022-11-18T01:26:40;22.00;;;12.80;;
2522;SDS011;1272;53.332;9.860;2022-11-18T01:29:06;18.50;;;13.33;;
2522;SDS011;1272;53.332;9.860;2022-11-18T01:31:31;19.97;;;12.63;;
2522;SDS011;1272;53.332;9.860;2022-11-18T01:33:57;19.80;;;14.10;;
2522;SDS011;1272;53.332;9.860;2022-11-18T01:36:24;25.13;;;15.30;;
2522;SDS011;1272;53.332;9.860;2022-11-18T01:38:51;18.03;;;13.20;;
2522;SDS011;1272;53.332;9.860;2022-11-18T01:41:19;20.83;;;13.27;;
2522;SDS011;1272;53.332;9.860;2022-11-18T01:46:30;23.70;;;13.57;;
2522;SDS011;1272;53.332;9.860;2022-11-18T01:51:40;21.20;;;14.40;;
2522;SDS011;1272;53.332;9.860;2022-11-18T01:54:15;20.60;;;14.03;;
2522;SDS011;1272;53.332;9.860;2022-11-18T01:56:46;23.20;;;13.63;;
2522;SDS011;1272;53.332;9.860;2022-11-18T01:59:18;22.00;;;13.73;;
2522;SDS011;1272;53.332;9.860;2022-11-18T02:01:47;18.20;;;12.03;;
2522;SDS011;1272;53.332;9.860;2022-11-18T02:04:14;21.53;;;12.57;;
2522;SDS011;1272;53.332;9.860;2022-11-18T02:06:44;19.83;;;12.83;;
2522;SDS011;1272;53.332;9.860;2022-11-18T02:09:14;20.40;;;12.57;;
2522;SDS011;1272;53.332;9.860;2022-11-18T02:11:40;20.33;;;13.67;;
2522;SDS011;1272;53.332;9.860;2022-11-18T02:14:18;21.80;;;12.87;;
2522;SDS011;1272;53.332;9.860;2022-11-18T02:30:19;19.70;;;13.47;;
2522;SDS011;1272;53.332;9.860;2022-11-18T02:38:08;22.07;;;13.53;;
2522;SDS011;1272;53.332;9.860;2022-11-18T02:40:42;20.90;;;13.77;;
2522;SDS011;1272;53.332;9.860;2022-11-18T02:43:15;21.70;;;14.07;;
2522;SDS011;1272;53.332;9.860;2022-11-18T02:45:49;25.33;;;14.87;;
2522;SDS011;1272;53.332;9.860;2022-11-18T02:48:21;21.07;;;13.77;;
2522;SDS011;1272;53.332;9.860;2022-11-18T02:50:50;19.60;;;12.67;;
2522;SDS011;1272;53.332;9.860;2022-11-18T02:53:19;19.63;;;12.60;;
2522;SDS011;1272;53.332;9.860;2022-11-18T02:55:46;19.70;;;12.20;;
2522;SDS011;1272;53.332;9.860;2022-11-18T02:58:13;21.80;;;13.00;;
2522;SDS011;1272;53.332;9.860;2022-11-18T03:00:41;21.67;;;13.87;;
2522;SDS011;1272;53.332;9.860;2022-11-18T03:05:56;17.70;;;12.47;;
2522;SDS011;1272;53.332;9.860;2022-11-18T03:08:24;19.47;;;13.50;;
2522;SDS011;1272;53.332;9.860;2022-11-18T03:11:02;18.83;;;12.03;;
2522;SDS011;1272;53.332;9.860;2022-11-18T03:16:39;21.13;;;13.10;;
2522;SDS011;1272;53.332;9.860;2022-11-18T03:27:39;23.50;;;12.70;;
2522;SDS011;1272;53.332;9.860;2022-11-18T03:30:16;20.73;;;14.00;;
2522;SDS011;1272;53.332;9.860;2022-11-18T03:32:45;20.67;;;13.73;;
2522;SDS011;1272;53.332;9.860;2022-11-18T03:35:29;19.77;;;13.63;;
2522;SDS011;1272;53.332;9.860;2022-11-18T03:37:59;21.87;;;14.77;;
2522;SDS011;1272;53.332;9.860;2022-11-18T03:40:32;22.40;;;14.80;;
2522;SDS011;1272;53.332;9.860;2022-11-18T03:43:08;20.83;;;14.00;;
2522;SDS011;1272;53.332;9.860;2022-11-18T03:45:39;22.10;;;14.30;;
2522;SDS011;1272;53.332;9.860;2022-11-18T03:50:58;24.90;;;15.70;;
2522;SDS011;1272;53.332;9.860;2022-11-18T03:53:27;21.73;;;14.60;;
2522;SDS011;1272;53.332;9.860;2022-11-18T03:55:58;26.70;;;16.90;;
2522;SDS011;1272;53.332;9.860;2022-11-18T03:58:30;25.57;;;16.10;;
2522;SDS011;1272;53.332;9.860;2022-11-18T04:01:03;27.93;;;15.87;;
2522;SDS011;1272;53.332;9.860;2022-11-18T04:03:33;28.87;;;16.03;;
2522;SDS011;1272;53.332;9.860;2022-11-18T04:06:05;24.63;;;15.60;;
2522;SDS011;1272;53.332;9.860;2022-11-18T04:08:40;27.77;;;16.57;;
2522;SDS011;1272;53.332;9.860;2022-11-18T04:11:11;28.87;;;18.33;;
2522;SDS011;1272;53.332;9.860;2022-11-18T04:14:00;28.30;;;17.60;;
2522;SDS011;1272;53.332;9.860;2022-11-18T04:16:28;27.20;;;16.63;;
2522;SDS011;1272;53.332;9.860;2022-11-18T04:18:53;29.97;;;16.60;;
2522;SDS011;1272;53.332;9.860;2022-11-18T04:21:19;27.10;;;16.50;;
2522;SDS011;1272;53.332;9.860;2022-11-18T04:23:45;25.90;;;16.10;;
2522;SDS011;1272;53.332;9.860;2022-11-18T04:26:10;27.33;;;17.70;;
2522;SDS011;1272;53.332;9.860;2022-11-18T04:28:36;27.43;;;16.60;;
2522;SDS011;1272;53.332;9.860;2022-11-18T04:31:02;29.60;;;17.83;;
2522;SDS011;1272;53.332;9.860;2022-11-18T04:33:28;30.77;;;19.97;;
2522;SDS011;1272;53.332;9.860;2022-11-18T04:35:53;30.10;;;16.40;;
2522;SDS011;1272;53.332;9.860;2022-11-18T04:38:19;32.20;;;19.50;;
2522;SDS011;1272;53.332;9.860;2022-11-18T04:40:45;29.23;;;18.63;;
2522;SDS011;1272;53.332;9.860;2022-11-18T04:43:10;28.07;;;16.80;;
2522;SDS011;1272;53.332;9.860;2022-11-18T04:45:36;28.57;;;17.60;;
2522;SDS011;1272;53.332;9.860;2022-11-18T04:48:02;28.60;;;17.60;;
2522;SDS011;1272;53.332;9.860;2022-11-18T04:50:28;31.23;;;19.60;;
2522;SDS011;1272;53.332;9.860;2022-11-18T04:52:53;30.40;;;17.83;;
2522;SDS011;1272;53.332;9.860;2022-11-18T04:55:19;31.37;;;17.73;;
2522;SDS011;1272;53.332;9.860;2022-11-18T04:57:45;34.43;;;20.17;;
2522;SDS011;1272;53.332;9.860;2022-11-18T05:00:10;31.80;;;18.10;;
2522;SDS011;1272;53.332;9.860;2022-11-18T05:02:36;31.57;;;18.90;;
2522;SDS011;1272;53.332;9.860;2022-11-18T05:05:02;25.90;;;17.47;;
2522;SDS011;1272;53.332;9.860;2022-11-18T05:07:28;24.40;;;17.43;;
2522;SDS011;1272;53.332;9.860;2022-11-18T05:09:54;31.73;;;18.30;;
2522;SDS011;1272;53.332;9.860;2022-11-18T05:12:19;29.10;;;19.37;;
2522;SDS011;1272;53.332;9.860;2022-11-18T05:15:04;34.97;;;20.03;;
2522;SDS011;1272;53.332;9.860;2022-11-18T05:17:30;29.67;;;18.73;;
2522;SDS011;1272;53.332;9.860;2022-11-18T05:19:55;31.33;;;19.00;;
2522;SDS011;1272;53.332;9.860;2022-11-18T05:22:21;29.23;;;18.80;;
2522;SDS011;1272;53.332;9.860;2022-11-18T05:24:47;27.83;;;17.63;;
2522;SDS011;1272;53.332;9.860;2022-11-18T05:27:13;30.50;;;18.70;;
2522;SDS011;1272;53.332;9.860;2022-11-18T05:29:39;28.70;;;17.80;;
2522;SDS011;1272;53.332;9.860;2022-11-18T05:32:05;28.13;;;18.63;;
2522;SDS011;1272;53.332;9.860;2022-11-18T05:34:30;30.00;;;19.13;;
2522;SDS011;1272;53.332;9.860;2022-11-18T05:36:56;30.57;;;18.87;;
2522;SDS011;1272;53.332;9.860;2022-11-18T05:39:22;30.93;;;18.80;;
2522;SDS011;1272;53.332;9.860;2022-11-18T05:41:47;31.57;;;18.90;;
2522;SDS011;1272;53.332;9.860;2022-11-18T05:44:32;32.13;;;18.87;;
2522;SDS011;1272;53.332;9.860;2022-11-18T05:46:57;29.20;;;17.83;;
2522;SDS011;1272;53.332;9.860;2022-11-18T05:49:24;31.63;;;18.40;;
2522;SDS011;1272;53.332;9.860;2022-11-18T05:51:49;28.20;;;18.33;;
2522;SDS011;1272;53.332;9.860;2022-11-18T05:54:15;32.73;;;18.63;;
2522;SDS011;1272;53.332;9.860;2022-11-18T05:56:44;28.90;;;19.20;;
2522;SDS011;1272;53.332;9.860;2022-11-18T05:59:10;28.80;;;18.37;;
2522;SDS011;1272;53.332;9.860;2022-11-18T06:01:45;30.93;;;18.90;;
2522;SDS011;1272;53.332;9.860;2022-11-18T06:04:23;28.30;;;17.17;;
2522;SDS011;1272;53.332;9.860;2022-11-18T06:07:01;27.50;;;18.00;;
2522;SDS011;1272;53.332;9.860;2022-11-18T06:09:34;30.00;;;19.17;;
2522;SDS011;1272;53.332;9.860;2022-11-18T06:12:03;25.40;;;17.73;;
2522;SDS011;1272;53.332;9.860;2022-11-18T06:16:59;28.20;;;18.50;;
2522;SDS011;1272;53.332;9.860;2022-11-18T06:19:29;29.07;;;17.63;;
2522;SDS011;1272;53.332;9.860;2022-11-18T06:21:55;24.83;;;16.30;;
2522;SDS011;1272;53.332;9.860;2022-11-18T06:24:23;26.10;;;18.30;;
2522;SDS011;1272;53.332;9.860;2022-11-18T06:26:49;26.13;;;18.10;;
2522;SDS011;1272;53.332;9.860;2022-11-18T06:29:15;31.07;;;20.27;;
2522;SDS011;1272;53.332;9.860;2022-11-18T06:31:43;32.03;;;18.23;;
2522;SDS011;1272;53.332;9.860;2022-11-18T06:34:09;30.50;;;19.80;;
2522;SDS011;1272;53.332;9.860;2022-11-18T06:36:34;30.33;;;17.93;;
2522;SDS011;1272;53.332;9.860;2022-11-18T06:39:03;30.23;;;19.30;;
2522;SDS011;1272;53.332;9.860;2022-11-18T06:41:30;33.00;;;19.77;;
2522;SDS011;1272;53.332;9.860;2022-11-18T06:43:56;30.80;;;19.40;;
2522;SDS011;1272;53.332;9.860;2022-11-18T06:46:22;30.03;;;18.07;;
2522;SDS011;1272;53.332;9.860;2022-11-18T06:49:06;28.30;;;17.40;;
2522;SDS011;1272;53.332;9.860;2022-11-18T06:51:32;31.40;;;18.93;;
2522;SDS011;1272;53.332;9.860;2022-11-18T06:53:58;28.43;;;18.43;;
2522;SDS011;1272;53.332;9.860;2022-11-18T06:56:23;31.87;;;19.57;;
2522;SDS011;1272;53.332;9.860;2022-11-18T06:58:56;29.77;;;19.43;;
2522;SDS011;1272;53.332;9.860;2022-11-18T07:01:27;31.10;;;19.83;;
2522;SDS011;1272;53.332;9.860;2022-11-18T07:03:54;26.90;;;19.03;;
2522;SDS011;1272;53.332;9.860;2022-11-18T07:06:22;27.10;;;18.77;;
2522;SDS011;1272;53.332;9.860;2022-11-18T07:08:49;27.17;;;17.13;;
2522;SDS011;1272;53.332;9.860;2022-11-18T07:11:20;26.20;;;16.90;;
2522;SDS011;1272;53.332;9.860;2022-11-18T07:13:47;30.23;;;19.47;;
2522;SDS011;1272;53.332;9.860;2022-11-18T07:16:15;26.97;;;17.83;;
2522;SDS011;1272;53.332;9.860;2022-11-18T07:18:45;27.33;;;17.87;;
2522;SDS011;1272;53.332;9.860;2022-11-18T07:21:13;29.10;;;17.47;;
2522;SDS011;1272;53.332;9.860;2022-11-18T07:23:56;27.40;;;17.23;;
2522;SDS011;1272;53.332;9.860;2022-11-18T07:26:45;24.30;;;16.87;;
2522;SDS011;1272;53.332;9.860;2022-11-18T07:29:12;25.77;;;16.70;;
2522;SDS011;1272;53.332;9.860;2022-11-18T07:31:37;25.10;;;16.70;;
2522;SDS011;1272;53.332;9.860;2022-11-18T07:34:04;25.50;;;17.17;;
2522;SDS011;1272;53.332;9.860;2022-11-18T07:36:30;25.37;;;18.23;;
2522;SDS011;1272;53.332;9.860;2022-11-18T07:38:59;23.97;;;16.97;;
2522;SDS011;1272;53.332;9.860;2022-11-18T07:41:26;27.40;;;18.40;;
2522;SDS011;1272;53.332;9.860;2022-11-18T07:43:54;26.40;;;17.77;;
2522;SDS011;1272;53.332;9.860;2022-11-18T07:48:48;28.57;;;18.80;;
2522;SDS011;1272;53.332;9.860;2022-11-18T07:51:16;25.13;;;17.97;;
2522;SDS011;1272;53.332;9.860;2022-11-18T07:53:43;29.80;;;19.73;;
2522;SDS011;1272;53.332;9.860;2022-11-18T07:56:10;30.47;;;20.73;;
2522;SDS011;1272;53.332;9.860;2022-11-18T07:58:36;31.33;;;20.07;;
2522;SDS011;1272;53.332;9.860;2022-11-18T08:01:12;30.33;;;19.30;;
2522;SDS011;1272;53.332;9.860;2022-11-18T08:03:40;33.27;;;21.00;;
2522;SDS011;1272;53.332;9.860;2022-11-18T08:06:07;31.57;;;20.80;;
2522;SDS011;1272;53.332;9.860;2022-11-18T08:08:34;34.00;;;20.47;;
2522;SDS011;1272;53.332;9.860;2022-11-18T08:11:01;32.33;;;20.57;;
2522;SDS011;1272;53.332;9.860;2022-11-18T08:13:28;31.93;;;21.13;;
2522;SDS011;1272;53.332;9.860;2022-11-18T08:15:54;33.77;;;20.37;;
2522;SDS011;1272;53.332;9.860;2022-11-18T08:18:21;35.63;;;21.30;;
2522;SDS011;1272;53.332;9.860;2022-11-18T08:20:47;34.43;;;21.00;;
2522;SDS011;1272;53.332;9.860;2022-11-18T08:23:13;39.53;;;22.33;;
2522;SDS011;1272;53.332;9.860;2022-11-18T08:25:40;31.80;;;21.10;;
2522;SDS011;1272;53.332;9.860;2022-11-18T08:28:06;35.03;;;21.57;;
2522;SDS011;1272;53.332;9.860;2022-11-18T08:30:33;35.57;;;22.63;;
2522;SDS011;1272;53.332;9.860;2022-11-18T08:32:59;37.30;;;22.37;;
2522;SDS011;1272;53.332;9.860;2022-11-18T08:35:25;36.13;;;22.20;;
2522;SDS011;1272;53.332;9.860;2022-11-18T08:37:52;36.67;;;21.00;;
2522;SDS011;1272;53.332;9.860;2022-11-18T08:40:17;35.17;;;21.10;;
2522;SDS011;1272;53.332;9.860;2022-11-18T08:42:47;36.40;;;22.20;;
2522;SDS011;1272;53.332;9.860;2022-11-18T08:45:13;39.30;;;23.77;;
2522;SDS011;1272;53.332;9.860;2022-11-18T08:47:39;34.37;;;21.60;;
2522;SDS011;1272;53.332;9.860;2022-11-18T08:50:05;38.10;;;22.77;;
2522;SDS011;1272;53.332;9.860;2022-11-18T08:52:32;37.80;;;22.30;;
2522;SDS011;1272;53.332;9.860;2022-11-18T08:54:58;35.33;;;22.60;;
2522;SDS011;1272;53.332;9.860;2022-11-18T08:57:24;33.00;;;21.73;;
2522;SDS011;1272;53.332;9.860;2022-11-18T08:59:49;33.87;;;21.00;;
2522;SDS011;1272;53.332;9.860;2022-11-18T09:02:16;33.37;;;20.10;;
2522;SDS011;1272;53.332;9.860;2022-11-18T09:04:46;35.40;;;21.63;;
2522;SDS011;1272;53.332;9.860;2022-11-18T09:07:12;37.77;;;21.50;;
2522;SDS011;1272;53.332;9.860;2022-11-18T09:09:38;33.70;;;20.60;;
2522;SDS011;1272;53.332;9.860;2022-11-18T09:12:04;34.20;;;21.67;;
2522;SDS011;1272;53.332;9.860;2022-11-18T09:14:30;31.33;;;20.57;;
2522;SDS011;1272;53.332;9.860;2022-11-18T09:16:56;32.80;;;20.97;;
2522;SDS011;1272;53.332;9.860;2022-11-18T09:19:21;32.10;;;21.03;;
2522;SDS011;1272;53.332;9.860;2022-11-18T09:21:47;31.63;;;19.87;;
2522;SDS011;1272;53.332;9.860;2022-11-18T09:24:13;36.47;;;23.27;;
2522;SDS011;1272;53.332;9.860;2022-11-18T09:26:39;35.07;;;21.57;;
2522;SDS011;1272;53.332;9.860;2022-11-18T09:29:05;36.77;;;21.87;;
2522;SDS011;1272;53.332;9.860;2022-11-18T09:31:30;28.27;;;19.30;;
2522;SDS011;1272;53.332;9.860;2022-11-18T09:33:59;34.37;;;20.90;;
2522;SDS011;1272;53.332;9.860;2022-11-18T09:36:25;32.17;;;19.53;;
2522;SDS011;1272;53.332;9.860;2022-11-18T09:38:52;28.00;;;19.90;;
2522;SDS011;1272;53.332;9.860;2022-11-18T09:47:08;27.57;;;18.23;;
2522;SDS011;1272;53.332;9.860;2022-11-18T09:49:53;30.03;;;18.90;;
2522;SDS011;1272;53.332;9.860;2022-11-18T09:52:27;28.90;;;17.30;;
2522;SDS011;1272;53.332;9.860;2022-11-18T09:55:03;32.47;;;19.40;;
2522;SDS011;1272;53.332;9.860;2022-11-18T09:57:49;25.77;;;18.10;;
2522;SDS011;1272;53.332;9.860;2022-11-18T10:00:18;28.20;;;17.50;;
2522;SDS011;1272;53.332;9.860;2022-11-18T10:05:14;29.27;;;19.67;;
2522;SDS011;1272;53.332;9.860;2022-11-18T10:10:15;25.60;;;16.57;;
2522;SDS011;1272;53.332;9.860;2022-11-18T10:12:51;26.20;;;17.20;;
2522;SDS011;1272;53.332;9.860;2022-11-18T10:15:42;30.20;;;19.33;;
2522;SDS011;1272;53.332;9.860;2022-11-18T10:21:02;23.83;;;16.63;;
2522;SDS011;1272;53.332;9.860;2022-11-18T10:23:51;24.00;;;16.40;;
2522;SDS011;1272;53.332;9.860;2022-11-18T10:26:34;29.50;;;18.17;;
2522;SDS011;1272;53.332;9.860;2022-11-18T10:29:02;25.00;;;17.20;;
2522;SDS011;1272;53.332;9.860;2022-11-18T10:31:28;25.90;;;17.40;;
2522;SDS011;1272;53.332;9.860;2022-11-18T10:34:00;26.57;;;18.67;;
2522;SDS011;1272;53.332;9.860;2022-11-18T10:36:29;28.00;;;18.07;;
2522;SDS011;1272;53.332;9.860;2022-11-18T10:39:14;24.17;;;15.93;;
2522;SDS011;1272;53.332;9.860;2022-11-18T10:41:42;28.67;;;17.73;;
2522;SDS011;1272;53.332;9.860;2022-11-18T10:44:44;27.37;;;17.70;;
2522;SDS011;1272;53.332;9.860;2022-11-18T10:47:48;27.17;;;18.43;;
2522;SDS011;1272;53.332;9.860;2022-11-18T10:49:59;27.60;;;18.10;;
2522;SDS011;1272;53.332;9.860;2022-11-18T10:52:27;27.60;;;18.93;;
2522;SDS011;1272;53.332;9.860;2022-11-18T10:55:04;23.93;;;17.90;;
2522;SDS011;1272;53.332;9.860;2022-11-18T10:57:52;27.17;;;17.80;;
2522;SDS011;1272;53.332;9.860;2022-11-18T11:03:14;24.63;;;17.33;;
2522;SDS011;1272;53.332;9.860;2022-11-18T11:05:47;26.97;;;18.50;;
2522;SDS011;1272;53.332;9.860;2022-11-18T11:08:33;24.77;;;16.17;;
2522;SDS011;1272;53.332;9.860;2022-11-18T11:10:59;26.23;;;16.87;;
2522;SDS011;1272;53.332;9.860;2022-11-18T11:13:26;23.83;;;16.43;;
2522;SDS011;1272;53.332;9.860;2022-11-18T11:15:55;23.97;;;16.07;;
2522;SDS011;1272;53.332;9.860;2022-11-18T11:18:27;23.47;;;16.00;;
2522;SDS011;1272;53.332;9.860;2022-11-18T11:23:41;26.80;;;16.10;;
2522;SDS011;1272;53.332;9.860;2022-11-18T11:33:59;19.17;;;15.07;;
2522;SDS011;1272;53.332;9.860;2022-11-18T11:55:14;17.70;;;13.80;;
2522;SDS011;1272;53.332;9.860;2022-11-18T12:00:33;17.37;;;13.40;;
2522;SDS011;1272;53.332;9.860;2022-11-18T12:03:17;15.63;;;12.20;;
2522;SDS011;1272;53.332;9.860;2022-11-18T12:06:07;16.13;;;12.90;;
2522;SDS011;1272;53.332;9.860;2022-11-18T12:08:34;17.47;;;11.30;;
2522;SDS011;1272;53.332;9.860;2022-11-18T12:13:59;14.73;;;12.33;;
2522;SDS011;1272;53.332;9.860;2022-11-18T12:19:00;16.13;;;11.73;;
2522;SDS011;1272;53.332;9.860;2022-11-18T12:26:56;12.90;;;10.67;;
2522;SDS011;1272;53.332;9.860;2022-11-18T12:29:23;17.37;;;11.43;;
2522;SDS011;1272;53.332;9.860;2022-11-18T12:32:00;15.27;;;11.90;;
2522;SDS011;1272;53.332;9.860;2022-11-18T12:34:28;13.30;;;10.53;;
2522;SDS011;1272;53.332;9.860;2022-11-18T12:42:37;13.30;;;10.60;;
2522;SDS011;1272;53.332;9.860;2022-11-18T12:48:25;14.70;;;10.47;;
2522;SDS011;1272;53.332;9.860;2022-11-18T12:53:38;13.20;;;10.80;;
2522;SDS011;1272;53.332;9.860;2022-11-18T12:56:31;17.60;;;11.10;;
2522;SDS011;1272;53.332;9.860;2022-11-18T12:58:58;15.10;;;9.77;;
2522;SDS011;1272;53.332;9.860;2022-11-18T13:01:26;13.60;;;10.30;;
2522;SDS011;1272;53.332;9.860;2022-11-18T13:06:44;11.57;;;10.17;;
2522;SDS011;1272;53.332;9.860;2022-11-18T13:09:13;13.57;;;9.70;;
2522;SDS011;1272;53.332;9.860;2022-11-18T13:11:51;13.13;;;10.20;;
2522;SDS011;1272;53.332;9.860;2022-11-18T13:14:21;13.57;;;10.33;;
2522;SDS011;1272;53.332;9.860;2022-11-18T13:22:56;13.10;;;8.80;;
2522;SDS011;1272;53.332;9.860;2022-11-18T13:26:05;10.33;;;8.27;;
2522;SDS011;1272;53.332;9.860;2022-11-18T13:29:25;10.70;;;8.53;;
2522;SDS011;1272;53.332;9.860;2022-11-18T13:34:18;9.63;;;7.43;;
2522;SDS011;1272;53.332;9.860;2022-11-18T13:36:45;10.90;;;7.97;;
2522;SDS011;1272;53.332;9.860;2022-11-18T13:39:22;10.13;;;8.60;;
2522;SDS011;1272;53.332;9.860;2022-11-18T13:42:02;12.57;;;8.43;;
2522;SDS011;1272;53.332;9.860;2022-11-18T13:44:30;10.93;;;7.90;;
2522;SDS011;1272;53.332;9.860;2022-11-18T13:55:54;10.70;;;8.53;;
2522;SDS011;1272;53.332;9.860;2022-11-18T14:01:22;10.30;;;9.20;;
2522;SDS011;1272;53.332;9.860;2022-11-18T14:04:00;10.20;;;8.27;;
2522;SDS011;1272;53.332;9.860;2022-11-18T14:06:33;10.00;;;8.00;;
2522;SDS011;1272;53.332;9.860;2022-11-18T14:09:03;8.10;;;7.30;;
2522;SDS011;1272;53.332;9.860;2022-11-18T14:11:33;10.17;;;8.10;;
2522;SDS011;1272;53.332;9.860;2022-11-18T14:14:01;7.70;;;6.90;;
2522;SDS011;1272;53.332;9.860;2022-11-18T14:16:31;9.70;;;8.10;;
2522;SDS011;1272;53.332;9.860;2022-11-18T14:18:58;10.27;;;7.60;;
2522;SDS011;1272;53.332;9.860;2022-11-18T14:21:29;8.20;;;7.20;;
2522;SDS011;1272;53.332;9.860;2022-11-18T14:23:59;7.23;;;6.50;;
2522;SDS011;1272;53.332;9.860;2022-11-18T14:26:29;9.30;;;7.53;;
2522;SDS011;1272;53.332;9.860;2022-11-18T14:29:15;9.53;;;7.37;;
2522;SDS011;1272;53.332;9.860;2022-11-18T14:34:37;8.17;;;7.40;;
2522;SDS011;1272;53.332;9.860;2022-11-18T14:37:07;8.53;;;6.97;;
2522;SDS011;1272;53.332;9.860;2022-11-18T14:39:37;8.77;;;7.50;;
2522;SDS011;1272;53.332;9.860;2022-11-18T14:42:03;8.30;;;7.33;;
2522;SDS011;1272;53.332;9.860;2022-11-18T14:44:30;8.70;;;7.53;;
2522;SDS011;1272;53.332;9.860;2022-11-18T14:53:44;8.93;;;7.70;;
2522;SDS011;1272;53.332;9.860;2022-11-18T14:55:53;16.27;;;7.93;;
2522;SDS011;1272;53.332;9.860;2022-11-18T14:58:22;10.13;;;8.17;;
2522;SDS011;1272;53.332;9.860;2022-11-18T15:00:48;8.83;;;7.63;;
2522;SDS011;1272;53.332;9.860;2022-11-18T15:03:14;11.00;;;8.03;;
2522;SDS011;1272;53.332;9.860;2022-11-18T15:05:40;10.77;;;8.20;;
2522;SDS011;1272;53.332;9.860;2022-11-18T15:08:06;10.03;;;7.37;;
2522;SDS011;1272;53.332;9.860;2022-11-18T15:10:32;9.20;;;8.03;;
2522;SDS011;1272;53.332;9.860;2022-11-18T15:12:59;8.67;;;7.10;;
2522;SDS011;1272;53.332;9.860;2022-11-18T15:15:25;10.30;;;8.00;;
2522;SDS011;1272;53.332;9.860;2022-11-18T15:17:56;10.97;;;7.87;;
2522;SDS011;1272;53.332;9.860;2022-11-18T15:20:22;7.30;;;6.60;;
2522;SDS011;1272;53.332;9.860;2022-11-18T15:22:48;8.07;;;7.27;;
2522;SDS011;1272;53.332;9.860;2022-11-18T15:25:14;10.53;;;7.30;;
2522;SDS011;1272;53.332;9.860;2022-11-18T15:27:39;12.40;;;7.50;;
2522;SDS011;1272;53.332;9.860;2022-11-18T15:30:05;10.30;;;7.40;;
2522;SDS011;1272;53.332;9.860;2022-11-18T15:32:31;10.37;;;7.73;;
2522;SDS011;1272;53.332;9.860;2022-11-18T15:34:57;9.50;;;7.80;;
2522;SDS011;1272;53.332;9.860;2022-11-18T15:37:23;9.83;;;8.20;;
2522;SDS011;1272;53.332;9.860;2022-11-18T15:39:48;8.77;;;7.80;;
2522;SDS011;1272;53.332;9.860;2022-11-18T15:42:15;9.90;;;8.00;;
2522;SDS011;1272;53.332;9.860;2022-11-18T15:44:44;9.73;;;8.30;;
2522;SDS011;1272;53.332;9.860;2022-11-18T15:47:13;11.10;;;8.93;;
2522;SDS011;1272;53.332;9.860;2022-11-18T15:49:38;12.30;;;8.43;;
2522;SDS011;1272;53.332;9.860;2022-11-18T15:52:08;10.27;;;7.53;;
2522;SDS011;1272;53.332;9.860;2022-11-18T15:54:35;12.00;;;9.00;;
2522;SDS011;1272;53.332;9.860;2022-11-18T15:57:01;10.90;;;8.70;;
2522;SDS011;1272;53.332;9.860;2022-11-18T15:59:27;12.53;;;8.90;;
2522;SDS011;1272;53.332;9.860;2022-11-18T16:01:53;12.90;;;9.43;;
2522;SDS011;1272;53.332;9.860;2022-11-18T16:04:19;11.53;;;8.57;;
2522;SDS011;1272;53.332;9.860;2022-11-18T16:06:48;10.77;;;9.63;;
2522;SDS011;1272;53.332;9.860;2022-11-18T16:09:14;12.93;;;9.80;;
2522;SDS011;1272;53.332;9.860;2022-11-18T16:11:40;11.90;;;9.03;;
2522;SDS011;1272;53.332;9.860;2022-11-18T16:14:25;13.10;;;11.13;;
2522;SDS011;1272;53.332;9.860;2022-11-18T16:16:52;16.10;;;11.07;;
2522;SDS011;1272;53.332;9.860;2022-11-18T16:19:20;13.00;;;10.37;;
2522;SDS011;1272;53.332;9.860;2022-11-18T16:21:49;14.47;;;10.70;;
2522;SDS011;1272;53.332;9.860;2022-11-18T16:24:21;14.07;;;10.20;;
2522;SDS011;1272;53.332;9.860;2022-11-18T16:26:48;17.03;;;10.90;;
2522;SDS011;1272;53.332;9.860;2022-11-18T16:29:14;13.83;;;10.80;;
2522;SDS011;1272;53.332;9.860;2022-11-18T16:31:41;12.33;;;9.77;;
2522;SDS011;1272;53.332;9.860;2022-11-18T16:34:20;12.47;;;9.37;;
2522;SDS011;1272;53.332;9.860;2022-11-18T16:36:55;11.53;;;10.23;;
2522;SDS011;1272;53.332;9.860;2022-11-18T16:39:22;13.97;;;9.37;;
2522;SDS011;1272;53.332;9.860;2022-11-18T16:42:03;14.97;;;10.70;;
2522;SDS011;1272;53.332;9.860;2022-11-18T16:44:49;13.30;;;10.03;;
2522;SDS011;1272;53.332;9.860;2022-11-18T16:47:15;12.80;;;10.53;;
2522;SDS011;1272;53.332;9.860;2022-11-18T16:49:41;11.17;;;9.97;;
2522;SDS011;1272;53.332;9.860;2022-11-18T16:52:07;14.07;;;10.10;;
2522;SDS011;1272;53.332;9.860;2022-11-18T16:54:33;14.17;;;10.10;;
2522;SDS011;1272;53.332;9.860;2022-11-18T16:56:59;17.00;;;9.73;;
2522;SDS011;1272;53.332;9.860;2022-11-18T16:59:26;15.70;;;10.50;;
2522;SDS011;1272;53.332;9.860;2022-11-18T17:01:54;12.30;;;9.50;;
2522;SDS011;1272;53.332;9.860;2022-11-18T17:04:21;14.27;;;11.67;;
2522;SDS011;1272;53.332;9.860;2022-11-18T17:06:48;12.37;;;10.20;;
2522;SDS011;1272;53.332;9.860;2022-11-18T17:09:15;14.07;;;11.13;;
2522;SDS011;1272;53.332;9.860;2022-11-18T17:11:46;12.73;;;10.13;;
2522;SDS011;1272;53.332;9.860;2022-11-18T17:14:12;13.70;;;9.87;;
2522;SDS011;1272;53.332;9.860;2022-11-18T17:16:38;13.27;;;9.60;;
2522;SDS011;1272;53.332;9.860;2022-11-18T17:19:04;13.87;;;10.67;;
2522;SDS011;1272;53.332;9.860;2022-11-18T17:21:30;11.93;;;9.63;;
2522;SDS011;1272;53.332;9.860;2022-11-18T17:23:58;12.23;;;10.87;;
2522;SDS011;1272;53.332;9.860;2022-11-18T17:26:25;11.03;;;9.90;;
2522;SDS011;1272;53.332;9.860;2022-11-18T17:28:51;36.83;;;20.17;;
2522;SDS011;1272;53.332;9.860;2022-11-18T17:31:19;12.83;;;11.13;;
2522;SDS011;1272;53.332;9.860;2022-11-18T17:33:47;13.17;;;10.00;;